sensor_id;sensor_type;location;lat;lon;timestamp;temperature;humidity
13976;DHT22;7062;49.792;9.946;2023-04-25T00:00:58;10.50;99.90
13976;DHT22;7062;49.792;9.946;2023-04-25T00:03:24;10.40;99.90
13976;DHT22;7062;49.792;9.946;2023-04-25T00:05:50;10.30;99.90
13976;DHT22;7062;49.792;9.946;2023-04-25T00:08:17;10.30;99.90
13976;DHT22;7062;49.792;9.946;2023-04-25T00:10:43;10.40;99.90
13976;DHT22;7062;49.792;9.946;2023-04-25T00:13:08;10.30;99.90
13976;DHT22;7062;49.792;9.946;2023-04-25T00:15:36;10.40;99.90
13976;DHT22;7062;49.792;9.946;2023-04-25T00:18:03;10.30;99.90
13976;DHT22;7062;49.792;9.946;2023-04-25T00:20:29;10.30;99.90
13976;DHT22;7062;49.792;9.946;2023-04-25T00:22:55;10.30;99.90
13976;DHT22;7062;49.792;9.946;2023-04-25T00:25:21;10.40;99.90
13976;DHT22;7062;49.792;9.946;2023-04-25T00:27:46;10.30;99.90
13976;DHT22;7062;49.792;9.946;2023-04-25T00:30:12;10.30;99.90
13976;DHT22;7062;49.792;9.946;2023-04-25T00:32:38;10.30;99.90
13976;DHT22;7062;49.792;9.946;2023-04-25T00:35:04;10.30;99.90
13976;DHT22;7062;49.792;9.946;2023-04-25T00:37:30;10.30;99.90
13976;DHT22;7062;49.792;9.946;2023-04-25T00:39:57;10.30;99.90
13976;DHT22;7062;49.792;9.946;2023-04-25T00:42:24;10.20;99.90
13976;DHT22;7062;49.792;9.946;2023-04-25T00:44:52;10.20;99.90
13976;DHT22;7062;49.792;9.946;2023-04-25T00:47:18;10.10;99.90
13976;DHT22;7062;49.792;9.946;2023-04-25T00:49:43;10.10;99.90
13976;DHT22;7062;49.792;9.946;2023-04-25T00:52:10;10.00;99.90
13976;DHT22;7062;49.792;9.946;2023-04-25T00:54:36;9.90;99.90
13976;DHT22;7062;49.792;9.946;2023-04-25T00:57:02;10.00;99.90
13976;DHT22;7062;49.792;9.946;2023-04-25T00:59:28;10.00;99.90
13976;DHT22;7062;49.792;9.946;2023-04-25T01:01:56;10.10;99.90
13976;DHT22;7062;49.792;9.946;2023-04-25T01:04:22;10.20;99.90
13976;DHT22;7062;49.792;9.946;2023-04-25T01:06:48;10.10;99.90
13976;DHT22;7062;49.792;9.946;2023-04-25T01:09:13;10.20;99.90
13976;DHT22;7062;49.792;9.946;2023-04-25T01:11:40;10.20;99.90
13976;DHT22;7062;49.792;9.946;2023-04-25T01:14:06;10.20;99.90
13976;DHT22;7062;49.792;9.946;2023-04-25T01:16:32;10.10;99.90
13976;DHT22;7062;49.792;9.946;2023-04-25T01:18:59;10.10;99.90
13976;DHT22;7062;49.792;9.946;2023-04-25T01:21:25;10.10;99.90
13976;DHT22;7062;49.792;9.946;2023-04-25T01:23:53;10.10;99.90
13976;DHT22;7062;49.792;9.946;2023-04-25T01:26:19;10.20;99.90
13976;DHT22;7062;49.792;9.946;2023-04-25T01:28:47;10.20;99.90
13976;DHT22;7062;49.792;9.946;2023-04-25T01:31:14;10.10;99.90
13976;DHT22;7062;49.792;9.946;2023-04-25T01:33:40;10.10;99.90
13976;DHT22;7062;49.792;9.946;2023-04-25T01:36:06;10.10;99.90
13976;DHT22;7062;49.792;9.946;2023-04-25T01:38:32;10.00;99.90
13976;DHT22;7062;49.792;9.946;2023-04-25T01:40:58;10.00;99.90
13976;DHT22;7062;49.792;9.946;2023-04-25T01:43:24;10.10;99.90
13976;DHT22;7062;49.792;9.946;2023-04-25T01:45:50;10.00;99.90
13976;DHT22;7062;49.792;9.946;2023-04-25T01:48:15;10.00;99.90
13976;DHT22;7062;49.792;9.946;2023-04-25T01:50:41;9.80;99.90
13976;DHT22;7062;49.792;9.946;2023-04-25T01:53:09;9.70;99.90
13976;DHT22;7062;49.792;9.946;2023-04-25T01:55:36;9.70;99.90
13976;DHT22;7062;49.792;9.946;2023-04-25T01:58:02;9.70;99.90
13976;DHT22;7062;49.792;9.946;2023-04-25T02:00:28;9.70;99.90
13976;DHT22;7062;49.792;9.946;2023-04-25T02:02:58;9.60;99.90
13976;DHT22;7062;49.792;9.946;2023-04-25T02:05:23;9.50;99.90
13976;DHT22;7062;49.792;9.946;2023-04-25T02:07:49;9.40;99.90
13976;DHT22;7062;49.792;9.946;2023-04-25T02:10:15;9.40;99.90
13976;DHT22;7062;49.792;9.946;2023-04-25T02:12:40;9.30;99.90
13976;DHT22;7062;49.792;9.946;2023-04-25T02:15:06;9.30;99.90
13976;DHT22;7062;49.792;9.946;2023-04-25T02:17:32;9.40;99.90
13976;DHT22;7062;49.792;9.946;2023-04-25T02:19:58;9.30;99.90
13976;DHT22;7062;49.792;9.946;2023-04-25T02:22:24;9.40;99.90
13976;DHT22;7062;49.792;9.946;2023-04-25T02:24:50;9.40;99.90
13976;DHT22;7062;49.792;9.946;2023-04-25T02:27:16;9.40;99.90
13976;DHT22;7062;49.792;9.946;2023-04-25T02:29:41;9.30;99.90
13976;DHT22;7062;49.792;9.946;2023-04-25T02:32:07;9.30;99.90
13976;DHT22;7062;49.792;9.946;2023-04-25T02:34:33;9.30;99.90
13976;DHT22;7062;49.792;9.946;2023-04-25T02:36:58;9.10;99.90
13976;DHT22;7062;49.792;9.946;2023-04-25T02:39:24;9.00;99.90
13976;DHT22;7062;49.792;9.946;2023-04-25T02:41:51;9.00;99.90
13976;DHT22;7062;49.792;9.946;2023-04-25T02:44:17;9.10;99.90
13976;DHT22;7062;49.792;9.946;2023-04-25T02:46:42;9.10;99.90
13976;DHT22;7062;49.792;9.946;2023-04-25T02:49:08;9.00;99.90
13976;DHT22;7062;49.792;9.946;2023-04-25T02:51:33;9.00;99.90
13976;DHT22;7062;49.792;9.946;2023-04-25T02:53:59;9.00;99.90
13976;DHT22;7062;49.792;9.946;2023-04-25T02:56:25;8.90;99.90
13976;DHT22;7062;49.792;9.946;2023-04-25T02:58:52;8.90;99.90
13976;DHT22;7062;49.792;9.946;2023-04-25T03:01:17;9.00;99.90
13976;DHT22;7062;49.792;9.946;2023-04-25T03:03:43;9.00;99.90
13976;DHT22;7062;49.792;9.946;2023-04-25T03:06:08;9.00;99.90
13976;DHT22;7062;49.792;9.946;2023-04-25T03:08:34;9.10;99.90
13976;DHT22;7062;49.792;9.946;2023-04-25T03:11:00;9.10;99.90
13976;DHT22;7062;49.792;9.946;2023-04-25T03:13:26;9.10;99.90
13976;DHT22;7062;49.792;9.946;2023-04-25T03:15:52;9.10;99.90
13976;DHT22;7062;49.792;9.946;2023-04-25T03:18:18;9.00;99.90
13976;DHT22;7062;49.792;9.946;2023-04-25T03:20:44;9.00;99.90
13976;DHT22;7062;49.792;9.946;2023-04-25T03:23:10;9.00;99.90
13976;DHT22;7062;49.792;9.946;2023-04-25T03:25:35;9.00;99.90
13976;DHT22;7062;49.792;9.946;2023-04-25T03:28:01;9.10;99.90
13976;DHT22;7062;49.792;9.946;2023-04-25T03:30:26;9.30;99.90
13976;DHT22;7062;49.792;9.946;2023-04-25T03:32:52;9.30;99.90
13976;DHT22;7062;49.792;9.946;2023-04-25T03:35:18;9.20;99.90
13976;DHT22;7062;49.792;9.946;2023-04-25T03:37:43;9.30;99.90
13976;DHT22;7062;49.792;9.946;2023-04-25T03:40:11;9.40;99.90
13976;DHT22;7062;49.792;9.946;2023-04-25T03:42:36;9.40;99.90
13976;DHT22;7062;49.792;9.946;2023-04-25T03:45:02;9.40;99.90
13976;DHT22;7062;49.792;9.946;2023-04-25T03:47:28;9.30;99.90
13976;DHT22;7062;49.792;9.946;2023-04-25T03:49:54;9.10;99.90
13976;DHT22;7062;49.792;9.946;2023-04-25T03:52:20;9.10;99.90
13976;DHT22;7062;49.792;9.946;2023-04-25T03:54:45;9.30;99.90
13976;DHT22;7062;49.792;9.946;2023-04-25T03:57:11;9.30;99.90
13976;DHT22;7062;49.792;9.946;2023-04-25T03:59:37;9.20;99.90
13976;DHT22;7062;49.792;9.946;2023-04-25T04:02:02;9.20;99.90
13976;DHT22;7062;49.792;9.946;2023-04-25T04:04:28;9.20;99.90
13976;DHT22;7062;49.792;9.946;2023-04-25T04:06:53;9.10;99.90
13976;DHT22;7062;49.792;9.946;2023-04-25T04:09:19;9.20;99.90
13976;DHT22;7062;49.792;9.946;2023-04-25T04:11:45;9.20;99.90
13976;DHT22;7062;49.792;9.946;2023-04-25T04:14:11;9.20;99.90
13976;DHT22;7062;49.792;9.946;2023-04-25T04:16:37;9.30;99.90
13976;DHT22;7062;49.792;9.946;2023-04-25T04:19:03;9.40;99.90
13976;DHT22;7062;49.792;9.946;2023-04-25T04:21:28;9.30;99.90
13976;DHT22;7062;49.792;9.946;2023-04-25T04:23:54;9.30;99.90
13976;DHT22;7062;49.792;9.946;2023-04-25T04:26:20;9.30;99.90
13976;DHT22;7062;49.792;9.946;2023-04-25T04:28:49;9.50;99.90
13976;DHT22;7062;49.792;9.946;2023-04-25T04:31:16;9.30;99.90
13976;DHT22;7062;49.792;9.946;2023-04-25T04:33:44;9.20;99.90
13976;DHT22;7062;49.792;9.946;2023-04-25T04:36:11;9.20;99.90
13976;DHT22;7062;49.792;9.946;2023-04-25T04:38:36;9.30;99.90
13976;DHT22;7062;49.792;9.946;2023-04-25T04:41:02;9.40;99.90
13976;DHT22;7062;49.792;9.946;2023-04-25T04:43:28;9.40;99.90
13976;DHT22;7062;49.792;9.946;2023-04-25T04:45:55;9.50;99.90
13976;DHT22;7062;49.792;9.946;2023-04-25T04:48:23;9.40;99.90
13976;DHT22;7062;49.792;9.946;2023-04-25T04:50:49;9.20;99.90
13976;DHT22;7062;49.792;9.946;2023-04-25T04:53:15;9.00;99.90
13976;DHT22;7062;49.792;9.946;2023-04-25T04:55:41;9.00;99.90
13976;DHT22;7062;49.792;9.946;2023-04-25T04:58:07;9.00;99.90
13976;DHT22;7062;49.792;9.946;2023-04-25T05:00:33;9.20;99.90
13976;DHT22;7062;49.792;9.946;2023-04-25T05:02:59;9.40;99.90
13976;DHT22;7062;49.792;9.946;2023-04-25T05:05:25;9.30;99.90
13976;DHT22;7062;49.792;9.946;2023-04-25T05:07:51;9.20;99.90
13976;DHT22;7062;49.792;9.946;2023-04-25T05:10:18;9.30;99.90
13976;DHT22;7062;49.792;9.946;2023-04-25T05:12:44;9.30;99.90
13976;DHT22;7062;49.792;9.946;2023-04-25T05:15:10;9.30;99.90
13976;DHT22;7062;49.792;9.946;2023-04-25T05:17:36;9.30;99.90
13976;DHT22;7062;49.792;9.946;2023-04-25T05:20:02;9.30;99.90
13976;DHT22;7062;49.792;9.946;2023-04-25T05:22:28;9.40;99.90
13976;DHT22;7062;49.792;9.946;2023-04-25T05:24:54;9.50;99.90
13976;DHT22;7062;49.792;9.946;2023-04-25T05:27:20;9.50;99.90
13976;DHT22;7062;49.792;9.946;2023-04-25T05:29:45;9.40;99.90
13976;DHT22;7062;49.792;9.946;2023-04-25T05:32:11;9.40;99.90
13976;DHT22;7062;49.792;9.946;2023-04-25T05:34:37;9.30;99.90
13976;DHT22;7062;49.792;9.946;2023-04-25T05:37:02;9.40;99.90
13976;DHT22;7062;49.792;9.946;2023-04-25T05:39:28;9.40;99.90
13976;DHT22;7062;49.792;9.946;2023-04-25T05:41:54;9.40;99.90
13976;DHT22;7062;49.792;9.946;2023-04-25T05:44:20;9.50;99.90
13976;DHT22;7062;49.792;9.946;2023-04-25T05:46:46;9.40;99.90
13976;DHT22;7062;49.792;9.946;2023-04-25T05:49:12;9.50;99.90
13976;DHT22;7062;49.792;9.946;2023-04-25T05:51:38;9.70;99.90
13976;DHT22;7062;49.792;9.946;2023-04-25T05:54:04;9.60;99.90
13976;DHT22;7062;49.792;9.946;2023-04-25T05:56:29;9.70;99.90
13976;DHT22;7062;49.792;9.946;2023-04-25T05:58:55;9.70;99.90
13976;DHT22;7062;49.792;9.946;2023-04-25T06:01:22;9.70;99.90
13976;DHT22;7062;49.792;9.946;2023-04-25T06:03:48;9.80;99.90
13976;DHT22;7062;49.792;9.946;2023-04-25T06:06:14;9.80;99.90
13976;DHT22;7062;49.792;9.946;2023-04-25T06:08:40;9.60;99.90
13976;DHT22;7062;49.792;9.946;2023-04-25T06:11:05;9.50;99.90
13976;DHT22;7062;49.792;9.946;2023-04-25T06:13:31;9.50;99.90
13976;DHT22;7062;49.792;9.946;2023-04-25T06:15:57;9.60;99.90
13976;DHT22;7062;49.792;9.946;2023-04-25T06:18:23;9.80;99.90
13976;DHT22;7062;49.792;9.946;2023-04-25T06:20:48;9.80;99.90
13976;DHT22;7062;49.792;9.946;2023-04-25T06:23:14;9.80;99.90
13976;DHT22;7062;49.792;9.946;2023-04-25T06:25:39;9.80;99.90
13976;DHT22;7062;49.792;9.946;2023-04-25T06:28:05;9.90;99.90
13976;DHT22;7062;49.792;9.946;2023-04-25T06:30:31;9.80;99.90
13976;DHT22;7062;49.792;9.946;2023-04-25T06:32:56;9.80;99.90
13976;DHT22;7062;49.792;9.946;2023-04-25T06:35:22;10.10;99.90
13976;DHT22;7062;49.792;9.946;2023-04-25T06:37:48;10.30;99.90
13976;DHT22;7062;49.792;9.946;2023-04-25T06:40:13;10.10;99.90
13976;DHT22;7062;49.792;9.946;2023-04-25T06:42:40;10.00;99.90
13976;DHT22;7062;49.792;9.946;2023-04-25T06:45:06;9.80;99.90
13976;DHT22;7062;49.792;9.946;2023-04-25T06:47:31;9.80;99.90
13976;DHT22;7062;49.792;9.946;2023-04-25T06:49:57;9.90;99.90
13976;DHT22;7062;49.792;9.946;2023-04-25T06:52:23;9.70;99.90
13976;DHT22;7062;49.792;9.946;2023-04-25T06:54:48;9.50;99.90
13976;DHT22;7062;49.792;9.946;2023-04-25T06:57:14;9.60;99.90
13976;DHT22;7062;49.792;9.946;2023-04-25T06:59:40;9.70;99.90
13976;DHT22;7062;49.792;9.946;2023-04-25T07:02:05;9.80;99.90
13976;DHT22;7062;49.792;9.946;2023-04-25T07:04:31;10.10;99.90
13976;DHT22;7062;49.792;9.946;2023-04-25T07:06:57;10.30;99.90
13976;DHT22;7062;49.792;9.946;2023-04-25T07:09:23;10.20;99.90
13976;DHT22;7062;49.792;9.946;2023-04-25T07:11:48;10.20;99.90
13976;DHT22;7062;49.792;9.946;2023-04-25T07:14:14;10.30;99.90
13976;DHT22;7062;49.792;9.946;2023-04-25T07:16:40;10.40;99.90
13976;DHT22;7062;49.792;9.946;2023-04-25T07:19:07;10.60;99.90
13976;DHT22;7062;49.792;9.946;2023-04-25T07:21:32;10.50;99.90
13976;DHT22;7062;49.792;9.946;2023-04-25T07:23:58;10.30;99.90
13976;DHT22;7062;49.792;9.946;2023-04-25T07:26:24;10.00;99.90
13976;DHT22;7062;49.792;9.946;2023-04-25T07:28:50;9.80;99.90
13976;DHT22;7062;49.792;9.946;2023-04-25T07:31:17;9.90;99.90
13976;DHT22;7062;49.792;9.946;2023-04-25T07:33:44;10.10;99.90
13976;DHT22;7062;49.792;9.946;2023-04-25T07:36:13;10.30;99.90
13976;DHT22;7062;49.792;9.946;2023-04-25T07:38:40;10.70;99.90
13976;DHT22;7062;49.792;9.946;2023-04-25T07:41:06;10.70;99.90
13976;DHT22;7062;49.792;9.946;2023-04-25T07:43:31;11.10;99.90
13976;DHT22;7062;49.792;9.946;2023-04-25T07:45:57;11.30;99.90
13976;DHT22;7062;49.792;9.946;2023-04-25T07:48:23;11.80;99.90
13976;DHT22;7062;49.792;9.946;2023-04-25T07:50:49;12.30;99.90
13976;DHT22;7062;49.792;9.946;2023-04-25T07:53:15;11.80;99.90
13976;DHT22;7062;49.792;9.946;2023-04-25T07:55:41;11.90;99.90
13976;DHT22;7062;49.792;9.946;2023-04-25T07:58:07;11.70;99.90
13976;DHT22;7062;49.792;9.946;2023-04-25T08:00:32;11.70;99.90
13976;DHT22;7062;49.792;9.946;2023-04-25T08:02:58;11.70;99.90
13976;DHT22;7062;49.792;9.946;2023-04-25T08:05:24;11.70;99.90
13976;DHT22;7062;49.792;9.946;2023-04-25T08:07:49;11.60;99.90
13976;DHT22;7062;49.792;9.946;2023-04-25T08:10:15;11.60;99.90
13976;DHT22;7062;49.792;9.946;2023-04-25T08:12:41;11.50;99.90
13976;DHT22;7062;49.792;9.946;2023-04-25T08:15:07;12.00;99.90
13976;DHT22;7062;49.792;9.946;2023-04-25T08:17:33;11.90;99.90
13976;DHT22;7062;49.792;9.946;2023-04-25T08:19:58;12.00;99.90
13976;DHT22;7062;49.792;9.946;2023-04-25T08:22:24;12.40;99.90
13976;DHT22;7062;49.792;9.946;2023-04-25T08:24:50;12.10;99.90
13976;DHT22;7062;49.792;9.946;2023-04-25T08:27:15;12.80;99.90
13976;DHT22;7062;49.792;9.946;2023-04-25T08:29:41;13.20;99.90
13976;DHT22;7062;49.792;9.946;2023-04-25T08:32:07;13.00;99.90
13976;DHT22;7062;49.792;9.946;2023-04-25T08:34:33;13.50;99.90
13976;DHT22;7062;49.792;9.946;2023-04-25T08:36:58;14.10;99.90
13976;DHT22;7062;49.792;9.946;2023-04-25T08:39:24;14.70;99.90
13976;DHT22;7062;49.792;9.946;2023-04-25T08:41:50;14.90;99.90
13976;DHT22;7062;49.792;9.946;2023-04-25T08:44:16;14.20;99.90
13976;DHT22;7062;49.792;9.946;2023-04-25T08:46:42;14.60;99.90
13976;DHT22;7062;49.792;9.946;2023-04-25T08:49:12;13.80;99.90
13976;DHT22;7062;49.792;9.946;2023-04-25T08:51:44;13.70;99.90
13976;DHT22;7062;49.792;9.946;2023-04-25T08:54:13;13.90;99.90
13976;DHT22;7062;49.792;9.946;2023-04-25T08:56:41;14.80;99.90
13976;DHT22;7062;49.792;9.946;2023-04-25T08:59:10;15.90;99.90
13976;DHT22;7062;49.792;9.946;2023-04-25T09:01:35;17.50;99.90
13976;DHT22;7062;49.792;9.946;2023-04-25T09:04:01;17.70;99.40
13976;DHT22;7062;49.792;9.946;2023-04-25T09:06:29;18.00;98.30
13976;DHT22;7062;49.792;9.946;2023-04-25T09:09:04;18.30;98.30
13976;DHT22;7062;49.792;9.946;2023-04-25T09:11:31;19.00;96.70
13976;DHT22;7062;49.792;9.946;2023-04-25T09:17:10;20.10;94.50
13976;DHT22;7062;49.792;9.946;2023-04-25T09:19:37;22.10;92.60
13976;DHT22;7062;49.792;9.946;2023-04-25T09:22:05;19.90;92.50
13976;DHT22;7062;49.792;9.946;2023-04-25T09:24:45;19.20;94.10
13976;DHT22;7062;49.792;9.946;2023-04-25T09:27:20;15.90;96.30
13976;DHT22;7062;49.792;9.946;2023-04-25T09:29:48;15.50;97.80
13976;DHT22;7062;49.792;9.946;2023-04-25T09:32:23;15.30;98.40
13976;DHT22;7062;49.792;9.946;2023-04-25T09:34:50;14.10;99.30
13976;DHT22;7062;49.792;9.946;2023-04-25T09:37:19;13.90;99.90
13976;DHT22;7062;49.792;9.946;2023-04-25T09:39:50;13.90;99.90
13976;DHT22;7062;49.792;9.946;2023-04-25T09:42:16;13.90;99.90
13976;DHT22;7062;49.792;9.946;2023-04-25T09:44:45;13.30;99.90
13976;DHT22;7062;49.792;9.946;2023-04-25T09:47:13;13.00;99.90
13976;DHT22;7062;49.792;9.946;2023-04-25T09:49:40;12.70;99.90
13976;DHT22;7062;49.792;9.946;2023-04-25T09:52:08;12.90;99.90
13976;DHT22;7062;49.792;9.946;2023-04-25T09:54:33;13.00;99.90
13976;DHT22;7062;49.792;9.946;2023-04-25T09:57:10;13.50;99.90
13976;DHT22;7062;49.792;9.946;2023-04-25T09:59:39;14.00;99.90
13976;DHT22;7062;49.792;9.946;2023-04-25T10:02:07;14.50;99.90
13976;DHT22;7062;49.792;9.946;2023-04-25T10:04:34;14.60;99.80
13976;DHT22;7062;49.792;9.946;2023-04-25T10:07:02;14.40;99.90
13976;DHT22;7062;49.792;9.946;2023-04-25T10:09:29;14.10;99.90
13976;DHT22;7062;49.792;9.946;2023-04-25T10:11:59;13.90;99.90
13976;DHT22;7062;49.792;9.946;2023-04-25T10:14:26;14.00;99.90
13976;DHT22;7062;49.792;9.946;2023-04-25T10:16:53;14.40;99.50
13976;DHT22;7062;49.792;9.946;2023-04-25T10:19:22;14.80;99.20
13976;DHT22;7062;49.792;9.946;2023-04-25T10:21:53;16.30;97.60
13976;DHT22;7062;49.792;9.946;2023-04-25T10:24:21;17.30;96.30
13976;DHT22;7062;49.792;9.946;2023-04-25T10:26:48;17.30;96.20
13976;DHT22;7062;49.792;9.946;2023-04-25T10:29:24;17.30;96.20
13976;DHT22;7062;49.792;9.946;2023-04-25T10:31:50;17.60;95.80
13976;DHT22;7062;49.792;9.946;2023-04-25T10:34:19;18.20;95.50
13976;DHT22;7062;49.792;9.946;2023-04-25T10:36:52;18.20;94.80
13976;DHT22;7062;49.792;9.946;2023-04-25T10:39:23;18.90;94.60
13976;DHT22;7062;49.792;9.946;2023-04-25T10:41:58;20.70;92.00
13976;DHT22;7062;49.792;9.946;2023-04-25T10:44:28;21.90;90.80
13976;DHT22;7062;49.792;9.946;2023-04-25T10:47:01;20.80;89.60
13976;DHT22;7062;49.792;9.946;2023-04-25T10:49:30;20.30;90.90
13976;DHT22;7062;49.792;9.946;2023-04-25T10:54:52;21.80;88.70
13976;DHT22;7062;49.792;9.946;2023-04-25T10:57:35;23.20;83.60
13976;DHT22;7062;49.792;9.946;2023-04-25T11:00:19;21.70;83.60
13976;DHT22;7062;49.792;9.946;2023-04-25T11:02:57;19.30;88.30
13976;DHT22;7062;49.792;9.946;2023-04-25T11:05:32;17.60;90.40
13976;DHT22;7062;49.792;9.946;2023-04-25T11:07:58;15.70;92.60
13976;DHT22;7062;49.792;9.946;2023-04-25T11:10:28;14.60;94.30
13976;DHT22;7062;49.792;9.946;2023-04-25T11:12:54;14.30;95.20
13976;DHT22;7062;49.792;9.946;2023-04-25T11:15:20;14.00;95.50
13976;DHT22;7062;49.792;9.946;2023-04-25T11:17:46;13.70;96.00
13976;DHT22;7062;49.792;9.946;2023-04-25T11:20:13;13.40;95.60
13976;DHT22;7062;49.792;9.946;2023-04-25T11:22:41;13.40;96.20
13976;DHT22;7062;49.792;9.946;2023-04-25T11:25:07;13.40;96.50
13976;DHT22;7062;49.792;9.946;2023-04-25T11:27:33;13.50;96.90
13976;DHT22;7062;49.792;9.946;2023-04-25T11:30:13;13.40;96.90
13976;DHT22;7062;49.792;9.946;2023-04-25T11:32:40;13.90;96.60
13976;DHT22;7062;49.792;9.946;2023-04-25T11:35:06;14.30;96.30
13976;DHT22;7062;49.792;9.946;2023-04-25T11:37:32;14.50;95.80
13976;DHT22;7062;49.792;9.946;2023-04-25T11:39:59;14.40;95.70
13976;DHT22;7062;49.792;9.946;2023-04-25T11:42:25;14.20;95.70
13976;DHT22;7062;49.792;9.946;2023-04-25T11:44:52;14.10;96.00
13976;DHT22;7062;49.792;9.946;2023-04-25T11:47:17;13.80;96.50
13976;DHT22;7062;49.792;9.946;2023-04-25T11:49:43;13.60;96.70
13976;DHT22;7062;49.792;9.946;2023-04-25T11:52:09;13.90;96.80
13976;DHT22;7062;49.792;9.946;2023-04-25T11:54:36;14.20;96.50
13976;DHT22;7062;49.792;9.946;2023-04-25T11:57:02;14.30;96.10
13976;DHT22;7062;49.792;9.946;2023-04-25T11:59:28;14.10;96.10
13976;DHT22;7062;49.792;9.946;2023-04-25T12:01:54;14.00;96.70
13976;DHT22;7062;49.792;9.946;2023-04-25T12:04:22;14.60;96.40
13976;DHT22;7062;49.792;9.946;2023-04-25T12:06:52;14.90;95.80
13976;DHT22;7062;49.792;9.946;2023-04-25T12:09:20;15.00;95.80
13976;DHT22;7062;49.792;9.946;2023-04-25T12:11:54;15.10;95.10
13976;DHT22;7062;49.792;9.946;2023-04-25T12:14:25;15.50;94.90
13976;DHT22;7062;49.792;9.946;2023-04-25T12:16:54;15.40;94.70
13976;DHT22;7062;49.792;9.946;2023-04-25T12:19:21;15.10;95.00
13976;DHT22;7062;49.792;9.946;2023-04-25T12:21:47;15.20;94.60
13976;DHT22;7062;49.792;9.946;2023-04-25T12:24:18;15.20;94.60
13976;DHT22;7062;49.792;9.946;2023-04-25T12:27:02;15.50;94.30
13976;DHT22;7062;49.792;9.946;2023-04-25T12:29:29;14.40;95.00
13976;DHT22;7062;49.792;9.946;2023-04-25T12:31:56;13.90;95.50
13976;DHT22;7062;49.792;9.946;2023-04-25T12:34:22;13.50;96.40
13976;DHT22;7062;49.792;9.946;2023-04-25T12:36:50;13.40;96.80
13976;DHT22;7062;49.792;9.946;2023-04-25T12:39:17;13.40;97.20
13976;DHT22;7062;49.792;9.946;2023-04-25T12:41:45;13.30;97.40
13976;DHT22;7062;49.792;9.946;2023-04-25T12:44:11;13.40;97.80
13976;DHT22;7062;49.792;9.946;2023-04-25T12:46:37;13.40;97.90
13976;DHT22;7062;49.792;9.946;2023-04-25T12:49:03;13.40;98.20
13976;DHT22;7062;49.792;9.946;2023-04-25T12:51:29;13.60;98.10
13976;DHT22;7062;49.792;9.946;2023-04-25T12:53:55;13.70;97.60
13976;DHT22;7062;49.792;9.946;2023-04-25T12:56:21;13.70;98.20
13976;DHT22;7062;49.792;9.946;2023-04-25T12:58:46;14.00;97.90
13976;DHT22;7062;49.792;9.946;2023-04-25T13:01:14;14.40;98.00
13976;DHT22;7062;49.792;9.946;2023-04-25T13:03:40;15.10;97.30
13976;DHT22;7062;49.792;9.946;2023-04-25T13:06:06;15.20;96.90
13976;DHT22;7062;49.792;9.946;2023-04-25T13:08:32;16.00;96.00
13976;DHT22;7062;49.792;9.946;2023-04-25T13:10:58;16.00;95.90
13976;DHT22;7062;49.792;9.946;2023-04-25T13:13:24;15.00;96.60
13976;DHT22;7062;49.792;9.946;2023-04-25T13:15:50;14.40;97.50
13976;DHT22;7062;49.792;9.946;2023-04-25T13:18:15;14.00;98.00
13976;DHT22;7062;49.792;9.946;2023-04-25T13:20:41;13.30;98.00
13976;DHT22;7062;49.792;9.946;2023-04-25T13:23:07;13.10;98.50
13976;DHT22;7062;49.792;9.946;2023-04-25T13:25:32;12.80;98.70
13976;DHT22;7062;49.792;9.946;2023-04-25T13:27:58;12.70;99.00
13976;DHT22;7062;49.792;9.946;2023-04-25T13:30:24;12.60;99.20
13976;DHT22;7062;49.792;9.946;2023-04-25T13:32:49;12.80;99.40
13976;DHT22;7062;49.792;9.946;2023-04-25T13:35:16;12.50;99.60
13976;DHT22;7062;49.792;9.946;2023-04-25T13:37:42;12.40;99.90
13976;DHT22;7062;49.792;9.946;2023-04-25T13:40:10;12.50;99.90
13976;DHT22;7062;49.792;9.946;2023-04-25T13:42:39;12.50;99.90
13976;DHT22;7062;49.792;9.946;2023-04-25T13:45:06;12.80;99.90
13976;DHT22;7062;49.792;9.946;2023-04-25T13:47:34;13.30;99.90
13976;DHT22;7062;49.792;9.946;2023-04-25T13:49:59;13.40;99.50
13976;DHT22;7062;49.792;9.946;2023-04-25T13:52:26;13.70;99.20
13976;DHT22;7062;49.792;9.946;2023-04-25T13:54:51;14.30;98.40
13976;DHT22;7062;49.792;9.946;2023-04-25T13:57:18;14.50;98.60
13976;DHT22;7062;49.792;9.946;2023-04-25T13:59:43;15.70;98.20
13976;DHT22;7062;49.792;9.946;2023-04-25T14:02:09;16.10;96.60
13976;DHT22;7062;49.792;9.946;2023-04-25T14:04:35;15.70;97.70
13976;DHT22;7062;49.792;9.946;2023-04-25T14:07:01;15.70;98.30
13976;DHT22;7062;49.792;9.946;2023-04-25T14:09:27;15.90;97.70
13976;DHT22;7062;49.792;9.946;2023-04-25T14:11:54;15.50;97.80
13976;DHT22;7062;49.792;9.946;2023-04-25T14:14:21;14.80;97.60
13976;DHT22;7062;49.792;9.946;2023-04-25T14:16:47;14.30;97.80
13976;DHT22;7062;49.792;9.946;2023-04-25T14:19:14;13.90;98.40
13976;DHT22;7062;49.792;9.946;2023-04-25T14:21:39;14.00;98.40
13976;DHT22;7062;49.792;9.946;2023-04-25T14:24:06;14.40;98.10
13976;DHT22;7062;49.792;9.946;2023-04-25T14:26:33;14.20;97.60
13976;DHT22;7062;49.792;9.946;2023-04-25T14:28:59;13.70;97.50
13976;DHT22;7062;49.792;9.946;2023-04-25T14:31:24;13.60;97.10
13976;DHT22;7062;49.792;9.946;2023-04-25T14:33:50;13.70;96.80
13976;DHT22;7062;49.792;9.946;2023-04-25T14:36:16;13.40;97.10
13976;DHT22;7062;49.792;9.946;2023-04-25T14:38:41;13.30;97.20
13976;DHT22;7062;49.792;9.946;2023-04-25T14:41:07;13.10;97.40
13976;DHT22;7062;49.792;9.946;2023-04-25T14:43:33;13.30;97.30
13976;DHT22;7062;49.792;9.946;2023-04-25T14:45:58;13.80;97.00
13976;DHT22;7062;49.792;9.946;2023-04-25T14:48:24;13.90;96.60
13976;DHT22;7062;49.792;9.946;2023-04-25T14:50:50;13.90;96.90
13976;DHT22;7062;49.792;9.946;2023-04-25T14:53:16;14.30;96.60
13976;DHT22;7062;49.792;9.946;2023-04-25T14:55:42;14.10;96.80
13976;DHT22;7062;49.792;9.946;2023-04-25T14:58:07;13.60;97.10
13976;DHT22;7062;49.792;9.946;2023-04-25T15:00:33;13.40;97.50
13976;DHT22;7062;49.792;9.946;2023-04-25T15:02:59;13.20;97.80
13976;DHT22;7062;49.792;9.946;2023-04-25T15:05:24;13.00;97.50
13976;DHT22;7062;49.792;9.946;2023-04-25T15:07:50;12.90;97.50
13976;DHT22;7062;49.792;9.946;2023-04-25T15:10:17;13.00;97.40
13976;DHT22;7062;49.792;9.946;2023-04-25T15:12:44;12.90;97.30
13976;DHT22;7062;49.792;9.946;2023-04-25T15:15:10;12.90;97.20
13976;DHT22;7062;49.792;9.946;2023-04-25T15:17:43;13.10;96.90
13976;DHT22;7062;49.792;9.946;2023-04-25T15:20:10;13.10;97.10
13976;DHT22;7062;49.792;9.946;2023-04-25T15:22:40;13.20;97.00
13976;DHT22;7062;49.792;9.946;2023-04-25T15:25:07;13.20;96.70
13976;DHT22;7062;49.792;9.946;2023-04-25T15:27:33;13.00;96.80
13976;DHT22;7062;49.792;9.946;2023-04-25T15:30:04;13.10;96.40
13976;DHT22;7062;49.792;9.946;2023-04-25T15:32:31;13.00;96.20
13976;DHT22;7062;49.792;9.946;2023-04-25T15:34:56;13.20;95.80
13976;DHT22;7062;49.792;9.946;2023-04-25T15:37:22;13.20;95.60
13976;DHT22;7062;49.792;9.946;2023-04-25T15:39:47;13.10;95.90
13976;DHT22;7062;49.792;9.946;2023-04-25T15:42:13;13.00;95.60
13976;DHT22;7062;49.792;9.946;2023-04-25T15:44:39;13.50;95.30
13976;DHT22;7062;49.792;9.946;2023-04-25T15:47:04;13.50;95.40
13976;DHT22;7062;49.792;9.946;2023-04-25T15:49:30;13.70;95.40
13976;DHT22;7062;49.792;9.946;2023-04-25T15:51:56;13.60;95.60
13976;DHT22;7062;49.792;9.946;2023-04-25T15:54:22;13.40;95.50